createdAt,value
2018-08-24T00:01:18.976Z,0.00
2018-08-24T00:02:18.973Z,0.00
2018-08-24T00:04:11.918Z,0.00
2018-08-24T00:05:11.916Z,0.00
2018-08-24T00:07:04.845Z,0.00
2018-08-24T00:08:04.859Z,0.00
2018-08-24T00:09:57.809Z,0.00
2018-08-24T00:10:57.808Z,0.00
2018-08-24T00:12:50.734Z,0.00
2018-08-24T00:13:50.750Z,0.00
2018-08-24T00:15:43.700Z,0.00
2018-08-24T00:16:43.697Z,0.00
2018-08-24T00:18:36.632Z,0.00
2018-08-24T00:19:36.645Z,0.00
2018-08-24T00:21:29.594Z,0.00
2018-08-24T00:22:29.590Z,0.00
2018-08-24T00:24:22.541Z,0.00
2018-08-24T00:25:22.534Z,0.00
2018-08-24T00:27:15.463Z,0.00
2018-08-24T00:28:15.478Z,0.00
2018-08-24T00:30:08.429Z,0.00
2018-08-24T00:31:08.423Z,0.00
2018-08-24T00:33:01.354Z,0.00
2018-08-24T00:34:01.372Z,0.00
2018-08-24T00:35:54.320Z,0.00
2018-08-24T00:36:54.314Z,0.00
2018-08-24T00:38:47.249Z,0.00
2018-08-24T00:39:47.259Z,0.00
2018-08-24T00:41:40.214Z,0.00
2018-08-24T00:42:40.221Z,0.00
2018-08-24T00:44:33.157Z,0.00
2018-08-24T00:45:33.150Z,0.00
2018-08-24T00:47:26.080Z,0.00
2018-08-24T00:48:26.092Z,0.00
2018-08-24T00:50:19.057Z,0.00
2018-08-24T00:51:19.053Z,0.00
2018-08-24T00:53:11.989Z,0.00
2018-08-24T00:54:12.040Z,0.00
2018-08-24T00:56:04.974Z,0.00
2018-08-24T00:57:04.959Z,0.00
2018-08-24T00:58:57.889Z,0.00
2018-08-24T00:59:57.907Z,0.00
2018-08-24T01:01:50.870Z,0.00
2018-08-24T01:02:50.869Z,0.00
2018-08-24T01:04:43.813Z,0.00
2018-08-24T01:05:43.805Z,0.00
2018-08-24T01:07:36.770Z,0.00
2018-08-24T01:08:36.751Z,0.00
2018-08-24T01:10:29.694Z,0.00
2018-08-24T01:11:29.687Z,0.00
2018-08-24T01:13:22.620Z,0.00
2018-08-24T01:14:22.641Z,0.00
2018-08-24T01:16:15.587Z,0.00
2018-08-24T01:17:15.583Z,0.00
2018-08-24T01:19:08.515Z,0.00
2018-08-24T01:20:08.524Z,0.00
2018-08-24T01:22:01.480Z,0.00
2018-08-24T01:23:01.474Z,0.00
2018-08-24T01:24:54.425Z,0.00
2018-08-24T01:25:54.418Z,0.00
2018-08-24T01:27:47.356Z,0.00
2018-08-24T01:28:47.368Z,0.00
2018-08-24T01:30:40.316Z,0.00
2018-08-24T01:31:40.313Z,0.00
2018-08-24T01:33:33.239Z,0.00
2018-08-24T01:34:33.252Z,0.00
2018-08-24T01:36:26.206Z,0.00
2018-08-24T01:37:26.191Z,0.00
2018-08-24T01:39:19.119Z,0.00
2018-08-24T01:40:19.136Z,0.00
2018-08-24T01:42:12.080Z,0.00
2018-08-24T01:43:12.075Z,0.00
2018-08-24T01:45:05.027Z,0.00
2018-08-24T01:46:05.028Z,0.00
2018-08-24T01:47:57.950Z,0.00
2018-08-24T01:48:57.960Z,0.00
2018-08-24T01:50:50.910Z,0.00
2018-08-24T01:51:50.904Z,0.00
2018-08-24T01:53:43.831Z,0.00
2018-08-24T02:24:14.591Z,0.00
2018-08-24T02:25:14.580Z,0.00
2018-08-24T02:27:07.509Z,0.00
2018-08-24T02:28:07.498Z,0.00
2018-08-24T02:30:00.430Z,0.00
2018-08-24T02:31:00.442Z,0.00
2018-08-24T02:32:53.369Z,0.00
2018-08-24T02:33:53.360Z,0.00
2018-08-24T02:35:46.289Z,0.00
2018-08-24T02:36:46.298Z,0.00
2018-08-24T02:38:39.244Z,0.00
2018-08-24T02:39:39.231Z,0.00
2018-08-24T02:41:32.178Z,0.00
2018-08-24T02:42:32.168Z,0.00
2018-08-24T02:44:25.096Z,0.00
2018-08-24T02:45:25.107Z,0.00
2018-08-24T02:47:18.058Z,0.00
2018-08-24T02:48:18.050Z,0.00
2018-08-24T02:50:10.975Z,0.00
2018-08-24T02:51:10.982Z,0.00
2018-08-24T02:53:03.929Z,0.00
2018-08-24T02:54:03.920Z,0.00
2018-08-24T02:55:56.848Z,0.00
2018-08-24T02:56:56.857Z,0.00
2018-08-24T02:58:49.804Z,0.00
2018-08-24T02:59:49.803Z,0.00
2018-08-24T03:01:42.746Z,0.00
2018-08-24T03:02:42.745Z,0.00
2018-08-24T03:04:35.666Z,0.00
2018-08-24T03:05:35.831Z,0.00
2018-08-24T03:07:28.627Z,0.00
2018-08-24T03:08:28.619Z,0.00
2018-08-24T03:10:21.557Z,0.00
2018-08-24T03:11:21.573Z,0.00
2018-08-24T03:13:14.529Z,0.00
2018-08-24T03:14:14.518Z,0.00
2018-08-24T03:16:07.499Z,0.00
2018-08-24T03:17:07.453Z,0.00
2018-08-24T03:19:00.403Z,0.00
2018-08-24T03:20:00.396Z,0.00
2018-08-24T03:21:53.344Z,0.00
2018-08-24T03:22:53.335Z,0.00
2018-08-24T03:24:46.276Z,0.00
2018-08-24T03:25:46.290Z,0.00
2018-08-24T03:27:39.230Z,0.00
2018-08-24T03:28:39.222Z,0.00
2018-08-24T03:30:32.148Z,0.00
2018-08-24T03:31:32.167Z,0.00
2018-08-24T03:33:25.108Z,0.00
2018-08-24T03:34:25.101Z,0.00
2018-08-24T03:36:18.026Z,0.00
2018-08-24T03:37:18.042Z,0.00
2018-08-24T03:39:10.986Z,0.00
2018-08-24T03:40:10.986Z,0.00
2018-08-24T03:42:03.934Z,0.00
2018-08-24T03:43:03.936Z,0.00
2018-08-24T03:44:56.869Z,0.00
2018-08-24T03:45:56.945Z,0.00
2018-08-24T03:47:49.828Z,0.00
2018-08-24T03:48:49.816Z,0.00
2018-08-24T03:50:42.740Z,0.00
2018-08-24T03:51:42.754Z,0.00
2018-08-24T03:53:35.727Z,0.00
2018-08-24T03:54:35.695Z,0.00
2018-08-24T03:56:28.625Z,0.00
2018-08-24T03:57:28.641Z,0.00
2018-08-24T03:59:21.587Z,0.00
2018-08-24T04:00:21.578Z,0.00
2018-08-24T04:02:14.528Z,0.00
2018-08-24T04:03:14.528Z,0.00
2018-08-24T04:05:07.451Z,0.00
2018-08-24T04:06:07.469Z,0.00
2018-08-24T04:08:00.419Z,0.00
2018-08-24T04:09:00.405Z,0.00
2018-08-24T04:10:53.331Z,0.00
2018-08-24T04:11:53.347Z,0.00
2018-08-24T04:13:46.297Z,0.00
2018-08-24T04:14:46.288Z,0.00
2018-08-24T04:16:39.220Z,0.00
2018-08-24T04:17:39.234Z,0.00
2018-08-24T04:19:32.250Z,0.00
2018-08-24T04:20:32.178Z,0.00
2018-08-24T04:22:25.124Z,0.00
2018-08-24T04:23:25.120Z,0.00
2018-08-24T04:25:18.041Z,0.00
2018-08-24T04:26:18.061Z,0.00
2018-08-24T04:28:11.004Z,0.00
2018-08-24T04:29:10.999Z,0.00
2018-08-24T04:31:03.933Z,0.00
2018-08-24T04:32:03.943Z,0.00
2018-08-24T04:33:56.899Z,0.00
2018-08-24T04:34:56.946Z,0.00
2018-08-24T04:36:49.818Z,0.00
2018-08-24T04:37:49.832Z,0.00
2018-08-24T04:39:42.782Z,0.00
2018-08-24T04:40:42.775Z,0.00
2018-08-24T04:42:35.728Z,0.00
2018-08-24T04:43:35.718Z,0.00
2018-08-24T04:45:28.651Z,0.00
2018-08-24T04:46:28.659Z,0.00
2018-08-24T04:48:21.611Z,0.00
2018-08-24T04:49:21.600Z,5.63
2018-08-24T04:51:14.530Z,5.63
2018-08-24T04:52:14.537Z,5.63
2018-08-24T04:54:07.491Z,5.63
2018-08-24T04:55:07.480Z,5.63
2018-08-24T04:57:00.411Z,5.63
2018-08-24T04:58:00.474Z,5.63
2018-08-24T04:59:53.372Z,5.63
2018-08-24T05:00:53.362Z,5.63
2018-08-24T05:02:46.326Z,5.63
2018-08-24T05:03:46.323Z,5.63
2018-08-24T05:05:39.282Z,5.63
2018-08-24T05:06:39.266Z,5.63
2018-08-24T05:08:32.215Z,11.25
2018-08-24T05:09:32.203Z,11.25
2018-08-24T05:11:25.137Z,11.25
2018-08-24T05:12:25.151Z,11.25
2018-08-24T05:14:18.099Z,11.25
2018-08-24T05:15:18.101Z,11.25
2018-08-24T05:17:11.019Z,5.63
2018-08-24T05:18:11.036Z,5.63
2018-08-24T05:20:03.980Z,11.25
2018-08-24T05:21:03.982Z,11.25
2018-08-24T05:22:56.926Z,11.25
2018-08-24T05:23:56.922Z,11.25
2018-08-24T05:25:49.852Z,11.25
2018-08-24T05:26:49.861Z,11.25
2018-08-24T05:28:42.817Z,16.88
2018-08-24T05:29:42.805Z,16.88
2018-08-24T05:31:35.731Z,16.88
2018-08-24T05:32:35.752Z,16.88
2018-08-24T05:34:28.715Z,16.88
2018-08-24T05:35:28.712Z,16.88
2018-08-24T05:37:21.636Z,11.25
2018-08-24T05:38:21.649Z,11.25
2018-08-24T05:40:14.596Z,11.25
2018-08-24T05:41:14.609Z,11.25
2018-08-24T05:43:07.532Z,16.88
2018-08-24T05:44:07.528Z,16.88
2018-08-24T05:46:00.455Z,16.88
2018-08-24T05:47:00.471Z,16.88
2018-08-24T05:48:53.481Z,16.88
2018-08-24T05:49:53.418Z,11.25
2018-08-24T05:51:46.341Z,11.25
2018-08-24T05:52:46.357Z,5.63
2018-08-24T05:54:39.302Z,11.25
2018-08-24T05:55:39.306Z,11.25
2018-08-24T05:57:32.225Z,11.25
2018-08-24T05:58:32.269Z,11.25
2018-08-24T06:00:25.180Z,16.88
2018-08-24T06:01:25.178Z,16.88
2018-08-24T06:03:18.128Z,28.13
2018-08-24T06:04:18.123Z,22.50
2018-08-24T06:06:11.079Z,11.25
2018-08-24T06:07:11.071Z,11.25
2018-08-24T06:09:04.025Z,5.63
2018-08-24T06:10:04.020Z,5.63
2018-08-24T06:11:56.941Z,5.63
2018-08-24T06:12:56.958Z,5.63
2018-08-24T06:14:49.907Z,16.88
2018-08-24T06:15:49.924Z,16.88
2018-08-24T06:17:42.831Z,16.88
2018-08-24T06:18:42.848Z,16.88
2018-08-24T06:20:35.795Z,22.50
2018-08-24T06:21:35.786Z,22.50
2018-08-24T06:23:28.751Z,22.50
2018-08-24T06:24:28.770Z,22.50
2018-08-24T06:26:21.656Z,22.50
2018-08-24T06:27:21.672Z,16.88
2018-08-24T06:29:14.625Z,16.88
2018-08-24T06:30:14.619Z,16.88
2018-08-24T06:32:07.546Z,11.25
2018-08-24T06:33:07.561Z,11.25
2018-08-24T06:35:00.515Z,11.25
2018-08-24T06:36:00.506Z,11.25
2018-08-24T06:37:53.432Z,5.63
2018-08-24T06:38:53.445Z,11.25
2018-08-24T06:40:46.395Z,11.25
2018-08-24T06:41:46.448Z,16.88
2018-08-24T06:43:39.353Z,16.88
2018-08-24T06:44:39.333Z,16.88
2018-08-24T06:46:32.262Z,11.25
2018-08-24T06:47:32.281Z,16.88
2018-08-24T06:49:25.227Z,16.88
2018-08-24T06:50:25.233Z,16.88
2018-08-24T06:52:18.145Z,22.50
2018-08-24T06:53:18.278Z,22.50
2018-08-24T06:55:11.108Z,22.50
2018-08-24T06:56:11.100Z,28.13
2018-08-24T06:58:04.028Z,22.50
2018-08-24T06:59:04.042Z,16.88
2018-08-24T07:00:56.990Z,11.25
2018-08-24T07:01:56.988Z,16.88
2018-08-24T07:03:49.930Z,28.13
2018-08-24T07:04:49.938Z,28.13
2018-08-24T07:06:42.889Z,22.50
2018-08-24T07:07:42.882Z,22.50
2018-08-24T07:09:35.831Z,28.13
2018-08-24T07:10:35.828Z,28.13
2018-08-24T07:12:28.750Z,33.75
2018-08-24T07:13:28.765Z,39.38
2018-08-24T07:15:21.718Z,45.00
2018-08-24T07:16:21.710Z,39.38
2018-08-24T07:18:14.641Z,33.75
2018-08-24T07:19:14.659Z,39.38
2018-08-24T07:21:07.600Z,45.00
2018-08-24T07:22:07.597Z,39.38
2018-08-24T07:24:00.525Z,45.00
2018-08-24T07:25:00.541Z,45.00
2018-08-24T07:26:53.483Z,56.25
2018-08-24T07:27:53.479Z,56.25
2018-08-24T07:29:46.431Z,61.88
2018-08-24T07:30:46.429Z,67.50
2018-08-24T07:32:39.359Z,78.75
2018-08-24T07:33:39.370Z,84.38
2018-08-24T07:35:32.324Z,101.25
2018-08-24T07:36:32.314Z,84.38
2018-08-24T07:38:25.252Z,56.25
2018-08-24T07:39:25.261Z,78.75
2018-08-24T07:41:18.265Z,84.38
2018-08-24T07:42:18.207Z,61.88
2018-08-24T07:44:11.140Z,45.00
2018-08-24T07:45:11.156Z,61.88
2018-08-24T07:47:04.102Z,90.00
2018-08-24T07:48:04.095Z,101.25
2018-08-24T07:49:57.044Z,112.50
2018-08-24T07:50:57.189Z,106.88
2018-08-24T07:52:49.994Z,90.00
2018-08-24T07:53:49.985Z,78.75
2018-08-24T07:55:42.935Z,73.13
2018-08-24T07:56:42.925Z,67.50
2018-08-24T07:58:35.851Z,61.88
2018-08-24T07:59:35.865Z,67.50
2018-08-24T08:01:28.827Z,67.50
2018-08-24T08:02:28.820Z,95.63
2018-08-24T08:04:21.750Z,140.63
2018-08-24T08:05:21.771Z,157.50
2018-08-24T08:07:14.712Z,163.13
2018-08-24T08:08:14.712Z,174.38
2018-08-24T08:10:07.662Z,196.88
2018-08-24T08:11:07.654Z,185.63
2018-08-24T08:13:00.590Z,174.38
2018-08-24T08:14:00.597Z,174.38
2018-08-24T08:15:53.554Z,163.13
2018-08-24T08:16:53.557Z,185.63
2018-08-24T08:18:46.482Z,191.25
2018-08-24T08:19:46.505Z,219.38
2018-08-24T08:21:39.450Z,225.00
2018-08-24T08:22:39.447Z,236.25
2018-08-24T08:24:32.416Z,225.00
2018-08-24T08:25:32.392Z,191.25
2018-08-24T08:27:25.340Z,157.50
2018-08-24T08:28:25.341Z,140.63
2018-08-24T08:30:18.290Z,146.25
2018-08-24T08:31:18.284Z,146.25
2018-08-24T08:33:11.216Z,174.38
2018-08-24T08:34:11.258Z,174.38
2018-08-24T08:36:04.187Z,118.13
2018-08-24T08:37:04.177Z,118.13
2018-08-24T08:38:57.158Z,202.50
2018-08-24T08:39:57.125Z,168.75
2018-08-24T08:41:50.076Z,236.25
2018-08-24T08:42:50.073Z,202.50
2018-08-24T08:44:43.011Z,202.50
2018-08-24T08:45:43.017Z,157.50
2018-08-24T08:47:35.967Z,174.38
2018-08-24T08:48:35.967Z,135.00
2018-08-24T08:50:28.913Z,163.13
2018-08-24T08:51:28.905Z,163.13
2018-08-24T08:53:21.887Z,146.25
2018-08-24T08:54:21.856Z,151.88
2018-08-24T08:56:14.842Z,196.88
2018-08-24T08:57:14.843Z,168.75
2018-08-24T08:59:07.743Z,185.63
2018-08-24T09:00:07.759Z,202.50
2018-08-24T09:02:00.710Z,208.13
2018-08-24T09:03:00.707Z,146.25
2018-08-24T09:04:53.629Z,157.50
2018-08-24T09:05:53.679Z,196.88
2018-08-24T09:07:46.602Z,191.25
2018-08-24T09:08:46.602Z,191.25
2018-08-24T09:10:39.555Z,191.25
2018-08-24T09:11:39.547Z,196.88
2018-08-24T09:13:32.476Z,225.00
2018-08-24T09:14:32.494Z,253.13
2018-08-24T09:16:25.450Z,258.75
2018-08-24T09:17:25.450Z,163.13
2018-08-24T09:19:18.375Z,208.13
2018-08-24T09:20:18.392Z,106.88
2018-08-24T09:22:11.347Z,180.00
2018-08-24T09:23:11.345Z,174.38
2018-08-24T09:25:04.286Z,174.38
2018-08-24T09:26:04.298Z,168.75
2018-08-24T09:27:57.251Z,163.13
2018-08-24T09:28:57.251Z,168.75
2018-08-24T09:30:50.183Z,168.75
2018-08-24T09:31:50.199Z,174.38
2018-08-24T09:33:43.148Z,185.63
2018-08-24T09:34:43.143Z,191.25
2018-08-24T09:36:36.094Z,174.38
2018-08-24T09:37:36.090Z,174.38
2018-08-24T09:39:29.023Z,174.38
2018-08-24T09:40:29.040Z,168.75
2018-08-24T09:42:21.998Z,78.75
2018-08-24T09:43:21.996Z,106.88
2018-08-24T09:45:14.927Z,157.50
2018-08-24T09:46:14.942Z,157.50
2018-08-24T09:48:07.901Z,163.13
2018-08-24T09:49:07.926Z,157.50
2018-08-24T09:51:00.828Z,157.50
2018-08-24T09:52:00.846Z,163.13
2018-08-24T09:53:53.799Z,151.88
2018-08-24T09:54:53.789Z,151.88
2018-08-24T09:56:46.797Z,163.13
2018-08-24T09:57:46.750Z,163.13
2018-08-24T09:59:39.675Z,163.13
2018-08-24T10:00:39.693Z,151.88
2018-08-24T10:02:32.657Z,202.50
2018-08-24T10:03:32.654Z,208.13
2018-08-24T10:05:25.587Z,196.88
2018-08-24T10:06:25.618Z,185.63
2018-08-24T10:08:18.543Z,163.13
2018-08-24T10:09:18.542Z,163.13
2018-08-24T10:11:11.486Z,185.63
2018-08-24T10:12:11.503Z,191.25
2018-08-24T10:14:04.455Z,202.50
2018-08-24T10:15:04.453Z,213.75
2018-08-24T10:16:57.410Z,213.75
2018-08-24T10:17:57.410Z,196.88
2018-08-24T10:19:50.332Z,180.00
2018-08-24T10:20:50.348Z,180.00
2018-08-24T10:22:43.302Z,174.38
2018-08-24T10:23:43.302Z,180.00
2018-08-24T10:25:36.232Z,191.25
2018-08-24T10:26:36.243Z,208.13
2018-08-24T10:28:29.196Z,196.88
2018-08-24T10:29:29.308Z,208.13
2018-08-24T10:31:22.128Z,230.63
2018-08-24T10:32:22.143Z,241.88
2018-08-24T10:34:15.100Z,213.75
2018-08-24T10:35:15.101Z,219.38
2018-08-24T10:37:08.049Z,202.50
2018-08-24T10:38:08.047Z,84.38
2018-08-24T10:40:00.984Z,180.00
2018-08-24T10:41:01.089Z,84.38
2018-08-24T10:42:53.957Z,174.38
2018-08-24T10:43:53.952Z,174.38
2018-08-24T10:45:46.887Z,78.75
2018-08-24T10:46:46.898Z,174.38
2018-08-24T10:48:39.849Z,168.75
2018-08-24T10:49:39.849Z,185.63
2018-08-24T10:51:32.813Z,202.50
2018-08-24T10:52:32.807Z,196.88
2018-08-24T10:54:25.773Z,101.25
2018-08-24T10:55:25.788Z,95.63
2018-08-24T10:57:18.753Z,90.00
2018-08-24T10:58:18.706Z,90.00
2018-08-24T11:00:11.642Z,208.13
2018-08-24T11:01:11.654Z,219.38
2018-08-24T11:03:04.612Z,236.25
2018-08-24T11:04:04.611Z,247.50
2018-08-24T11:05:57.550Z,236.25
2018-08-24T11:06:57.572Z,230.63
2018-08-24T11:08:50.520Z,230.63
2018-08-24T11:09:50.521Z,236.25
2018-08-24T11:11:43.455Z,253.13
2018-08-24T11:12:43.477Z,258.75
2018-08-24T11:14:36.428Z,258.75
2018-08-24T11:15:36.431Z,258.75
2018-08-24T11:17:29.358Z,180.00
2018-08-24T11:18:29.373Z,253.13
2018-08-24T11:20:22.331Z,219.38
2018-08-24T11:21:22.327Z,213.75
2018-08-24T11:23:15.285Z,118.13
2018-08-24T11:24:15.283Z,213.75
2018-08-24T11:26:08.231Z,191.25
2018-08-24T11:27:08.233Z,185.63
2018-08-24T11:29:01.196Z,180.00
2018-08-24T11:30:01.222Z,174.38
2018-08-24T11:31:54.130Z,174.38
2018-08-24T11:32:54.141Z,174.38
2018-08-24T11:34:47.097Z,174.38
2018-08-24T11:35:47.154Z,174.38
2018-08-24T11:37:40.026Z,180.00
2018-08-24T11:38:40.043Z,174.38
2018-08-24T11:40:32.997Z,180.00
2018-08-24T11:41:32.994Z,135.00
2018-08-24T11:43:25.948Z,185.63
2018-08-24T11:44:25.946Z,185.63
2018-08-24T11:46:18.889Z,196.88
2018-08-24T11:47:18.901Z,95.63
2018-08-24T11:49:11.856Z,208.13
2018-08-24T11:50:11.857Z,106.88
2018-08-24T11:52:04.791Z,196.88
2018-08-24T11:53:04.809Z,202.50
2018-08-24T11:54:57.766Z,196.88
2018-08-24T11:55:57.764Z,208.13
2018-08-24T11:57:50.713Z,208.13
2018-08-24T11:58:50.729Z,202.50
2018-08-24T12:00:43.692Z,118.13
2018-08-24T12:01:43.688Z,101.25
2018-08-24T12:03:36.644Z,101.25
2018-08-24T12:04:36.640Z,118.13
2018-08-24T12:06:29.578Z,213.75
2018-08-24T12:07:29.592Z,140.63
2018-08-24T12:09:22.548Z,202.50
2018-08-24T12:10:22.545Z,202.50
2018-08-24T12:12:15.511Z,191.25
2018-08-24T12:13:15.494Z,101.25
2018-08-24T12:15:08.446Z,191.25
2018-08-24T12:16:08.448Z,202.50
2018-08-24T12:18:01.376Z,168.75
2018-08-24T12:19:01.396Z,191.25
2018-08-24T12:20:54.354Z,174.38
2018-08-24T12:21:54.353Z,191.25
2018-08-24T12:23:47.312Z,180.00
2018-08-24T12:24:47.307Z,180.00
2018-08-24T12:26:40.238Z,196.88
2018-08-24T12:27:40.255Z,185.63
2018-08-24T12:29:33.208Z,185.63
2018-08-24T12:30:33.202Z,168.75
2018-08-24T12:32:26.139Z,118.13
2018-08-24T12:33:26.159Z,118.13
2018-08-24T12:35:19.118Z,174.38
2018-08-24T12:36:19.113Z,174.38
2018-08-24T12:38:12.128Z,180.00
2018-08-24T12:39:12.060Z,174.38
2018-08-24T12:41:05.061Z,163.13
2018-08-24T12:42:05.010Z,163.13
2018-08-24T12:43:57.962Z,168.75
2018-08-24T12:44:57.958Z,180.00
2018-08-24T12:46:50.894Z,191.25
2018-08-24T12:47:50.908Z,196.88
2018-08-24T12:49:43.862Z,219.38
2018-08-24T12:50:43.861Z,219.38
2018-08-24T12:52:36.803Z,236.25
2018-08-24T12:53:36.819Z,225.00
2018-08-24T12:55:29.765Z,225.00
2018-08-24T12:56:29.764Z,230.63
2018-08-24T12:58:22.697Z,253.13
2018-08-24T12:59:22.715Z,247.50
2018-08-24T13:01:15.673Z,230.63
2018-08-24T13:02:15.685Z,236.25
2018-08-24T13:04:08.627Z,230.63
2018-08-24T13:05:08.651Z,219.38
2018-08-24T13:07:01.557Z,208.13
2018-08-24T13:08:01.574Z,202.50
2018-08-24T13:09:54.527Z,208.13
2018-08-24T13:10:54.522Z,219.38
2018-08-24T13:12:47.459Z,191.25
2018-08-24T13:13:47.480Z,196.88
2018-08-24T13:15:40.436Z,191.25
2018-08-24T13:16:40.435Z,185.63
2018-08-24T13:18:33.369Z,174.38
2018-08-24T13:19:33.387Z,174.38
2018-08-24T13:21:26.408Z,174.38
2018-08-24T13:22:26.344Z,163.13
2018-08-24T13:24:19.329Z,157.50
2018-08-24T13:25:19.374Z,157.50
2018-08-24T13:27:12.308Z,174.38
2018-08-24T13:28:12.274Z,174.38
2018-08-24T13:30:05.226Z,146.25
2018-08-24T13:31:05.221Z,157.50
2018-08-24T13:32:58.164Z,151.88
2018-08-24T13:33:58.184Z,151.88
2018-08-24T13:35:51.137Z,146.25
2018-08-24T13:36:51.132Z,151.88
2018-08-24T13:38:44.065Z,163.13
2018-08-24T13:39:44.088Z,174.38
2018-08-24T13:41:37.040Z,180.00
2018-08-24T13:42:37.033Z,185.63
2018-08-24T13:44:29.990Z,196.88
2018-08-24T13:45:29.986Z,208.13
2018-08-24T13:47:22.923Z,208.13
2018-08-24T13:48:22.942Z,208.13
2018-08-24T13:50:15.933Z,202.50
2018-08-24T13:51:15.898Z,191.25
2018-08-24T13:53:08.829Z,196.88
2018-08-24T13:54:08.845Z,196.88
2018-08-24T13:56:01.818Z,191.25
2018-08-24T13:57:01.812Z,191.25
2018-08-24T13:58:54.745Z,163.13
2018-08-24T13:59:54.801Z,157.50
2018-08-24T14:01:47.716Z,146.25
2018-08-24T14:02:47.716Z,146.25
2018-08-24T14:04:40.675Z,140.63
2018-08-24T14:05:40.667Z,135.00
2018-08-24T14:07:33.606Z,123.75
2018-08-24T14:08:33.624Z,118.13
2018-08-24T14:10:26.580Z,106.88
2018-08-24T14:11:26.575Z,101.25
2018-08-24T14:13:19.518Z,90.00
2018-08-24T14:14:19.533Z,90.00
2018-08-24T14:16:12.490Z,73.13
2018-08-24T14:17:12.478Z,67.50
2018-08-24T14:19:05.419Z,67.50
2018-08-24T14:20:05.436Z,67.50
2018-08-24T14:21:58.384Z,73.13
2018-08-24T14:22:58.384Z,73.13
2018-08-24T14:24:51.335Z,67.50
2018-08-24T14:25:51.331Z,61.88
2018-08-24T14:27:44.268Z,61.88
2018-08-24T14:28:44.282Z,67.50
2018-08-24T14:30:37.235Z,78.75
2018-08-24T14:31:37.246Z,95.63
2018-08-24T14:33:30.163Z,112.50
2018-08-24T14:34:30.185Z,129.38
2018-08-24T14:36:23.131Z,146.25
2018-08-24T14:37:23.130Z,151.88
2018-08-24T14:39:16.094Z,163.13
2018-08-24T14:40:16.079Z,163.13
2018-08-24T14:42:09.004Z,163.13
2018-08-24T14:43:09.025Z,163.13
2018-08-24T14:45:01.983Z,157.50
2018-08-24T14:46:01.982Z,151.88
2018-08-24T14:47:54.915Z,151.88
2018-08-24T14:48:54.933Z,151.88
2018-08-24T14:50:47.880Z,140.63
2018-08-24T14:51:47.883Z,140.63
2018-08-24T14:53:40.844Z,135.00
2018-08-24T14:54:40.835Z,135.00
2018-08-24T14:56:33.774Z,129.38
2018-08-24T14:57:33.854Z,129.38
2018-08-24T14:59:26.740Z,123.75
2018-08-24T15:00:26.740Z,123.75
2018-08-24T15:02:19.671Z,129.38
2018-08-24T15:03:19.688Z,129.38
2018-08-24T15:05:12.641Z,123.75
2018-08-24T15:06:12.639Z,123.75
2018-08-24T15:08:05.575Z,118.13
2018-08-24T15:09:05.589Z,123.75
2018-08-24T15:10:58.540Z,118.13
2018-08-24T15:11:58.540Z,118.13
2018-08-24T15:13:51.488Z,112.50
2018-08-24T15:14:51.484Z,106.88
2018-08-24T15:16:44.427Z,106.88
2018-08-24T15:17:44.439Z,101.25
2018-08-24T15:19:37.390Z,95.63
2018-08-24T15:20:37.388Z,95.63
2018-08-24T15:22:30.335Z,101.25
2018-08-24T15:23:30.345Z,101.25
2018-08-24T15:25:23.298Z,101.25
2018-08-24T15:26:23.298Z,95.63
2018-08-24T15:28:16.225Z,90.00
2018-08-24T15:29:16.241Z,95.63
2018-08-24T15:31:09.190Z,95.63
2018-08-24T15:32:09.187Z,95.63
2018-08-24T15:34:02.144Z,95.63
2018-08-24T15:35:02.164Z,95.63
2018-08-24T15:36:55.071Z,95.63
2018-08-24T15:37:55.091Z,90.00
2018-08-24T15:39:48.058Z,90.00
2018-08-24T15:40:48.045Z,90.00
2018-08-24T15:42:40.983Z,90.00
2018-08-24T15:43:41.002Z,90.00
2018-08-24T15:45:33.989Z,90.00
2018-08-24T15:46:33.952Z,90.00
2018-08-24T15:48:26.884Z,84.38
2018-08-24T15:49:26.898Z,84.38
2018-08-24T15:51:19.868Z,84.38
2018-08-24T15:52:19.859Z,78.75
2018-08-24T15:54:12.812Z,78.75
2018-08-24T15:55:12.803Z,78.75
2018-08-24T15:57:05.738Z,78.75
2018-08-24T15:58:05.756Z,78.75
2018-08-24T15:59:58.723Z,73.13
2018-08-24T16:00:58.704Z,73.13
2018-08-24T16:02:51.639Z,73.13
2018-08-24T16:03:51.651Z,73.13
2018-08-24T16:05:44.612Z,67.50
2018-08-24T16:06:44.605Z,67.50
2018-08-24T16:08:37.535Z,67.50
2018-08-24T16:09:37.546Z,67.50
2018-08-24T16:11:30.508Z,73.13
2018-08-24T16:12:30.499Z,73.13
2018-08-24T16:14:23.447Z,73.13
2018-08-24T16:15:23.442Z,73.13
2018-08-24T16:17:16.378Z,73.13
2018-08-24T16:18:16.396Z,67.50
2018-08-24T16:20:09.340Z,67.50
2018-08-24T16:21:09.342Z,67.50
2018-08-24T16:23:02.271Z,61.88
2018-08-24T16:24:02.293Z,61.88
2018-08-24T16:25:55.235Z,56.25
2018-08-24T16:26:55.242Z,56.25
2018-08-24T16:28:48.177Z,56.25
2018-08-24T16:29:48.188Z,56.25
2018-08-24T16:31:41.140Z,61.88
2018-08-24T16:32:41.143Z,61.88
2018-08-24T16:34:34.081Z,61.88
2018-08-24T16:35:34.078Z,61.88
2018-08-24T16:37:27.011Z,67.50
2018-08-24T16:38:27.025Z,61.88
2018-08-24T16:40:19.977Z,61.88
2018-08-24T16:41:19.974Z,61.88
2018-08-24T16:43:12.905Z,56.25
2018-08-24T16:44:12.920Z,56.25
2018-08-24T16:46:05.873Z,56.25
2018-08-24T16:47:05.868Z,56.25
2018-08-24T16:48:58.797Z,56.25
2018-08-24T16:49:58.811Z,50.63
2018-08-24T16:51:51.764Z,50.63
2018-08-24T16:52:51.758Z,50.63
2018-08-24T16:54:44.713Z,50.63
2018-08-24T16:55:44.730Z,50.63
2018-08-24T16:57:37.637Z,50.63
2018-08-24T16:58:37.652Z,50.63
2018-08-24T17:00:30.601Z,45.00
2018-08-24T17:01:30.596Z,45.00
2018-08-24T17:03:23.532Z,39.38
2018-08-24T17:04:23.547Z,39.38
2018-08-24T17:06:16.500Z,39.38
2018-08-24T17:07:16.495Z,39.38
2018-08-24T17:09:09.420Z,39.38
2018-08-24T17:10:09.438Z,39.38
2018-08-24T17:12:02.402Z,39.38
2018-08-24T17:13:02.498Z,39.38
2018-08-24T17:14:55.345Z,39.38
2018-08-24T17:15:55.341Z,39.38
2018-08-24T17:17:48.267Z,33.75
2018-08-24T17:18:48.286Z,33.75
2018-08-24T17:20:41.233Z,33.75
2018-08-24T17:21:41.237Z,28.13
2018-08-24T17:23:34.162Z,28.13
2018-08-24T17:24:34.174Z,28.13
2018-08-24T17:26:27.128Z,28.13
2018-08-24T17:27:27.121Z,28.13
2018-08-24T17:29:20.054Z,22.50
2018-08-24T17:30:20.080Z,22.50
2018-08-24T17:32:13.014Z,22.50
2018-08-24T17:33:13.010Z,22.50
2018-08-24T17:35:05.965Z,22.50
2018-08-24T17:36:05.961Z,22.50
2018-08-24T17:37:58.891Z,22.50
2018-08-24T17:38:58.903Z,22.50
2018-08-24T17:40:51.849Z,22.50
2018-08-24T17:41:51.926Z,22.50
2018-08-24T17:43:44.781Z,22.50
2018-08-24T17:44:44.795Z,16.88
2018-08-24T17:46:37.741Z,16.88
2018-08-24T17:47:37.738Z,16.88
2018-08-24T17:49:30.666Z,16.88
2018-08-24T17:50:30.681Z,16.88
2018-08-24T17:52:23.653Z,22.50
2018-08-24T17:53:23.628Z,16.88
2018-08-24T17:55:16.580Z,16.88
2018-08-24T17:56:16.577Z,16.88
2018-08-24T17:58:09.502Z,16.88
2018-08-24T17:59:09.516Z,16.88
2018-08-24T18:01:02.463Z,11.25
2018-08-24T18:02:02.464Z,11.25
2018-08-24T18:03:55.445Z,11.25
2018-08-24T18:04:55.402Z,11.25
2018-08-24T18:06:48.352Z,11.25
2018-08-24T18:07:48.346Z,11.25
2018-08-24T18:09:41.276Z,11.25
2018-08-24T18:10:41.291Z,11.25
2018-08-24T18:12:34.235Z,11.25
2018-08-24T18:13:34.236Z,11.25
2018-08-24T18:15:27.195Z,5.63
2018-08-24T18:16:27.192Z,5.63
2018-08-24T18:18:20.121Z,5.63
2018-08-24T18:19:20.138Z,5.63
2018-08-24T18:21:13.100Z,5.63
2018-08-24T18:22:13.094Z,5.63
2018-08-24T18:24:06.016Z,5.63
2018-08-24T18:25:06.033Z,5.63
2018-08-24T18:26:58.977Z,5.63
2018-08-24T18:27:58.972Z,0.00
2018-08-24T18:29:51.918Z,0.00
2018-08-24T18:30:51.917Z,0.00
2018-08-24T18:32:44.868Z,0.00
2018-08-24T18:33:44.861Z,0.00
2018-08-24T18:35:37.814Z,0.00
2018-08-24T18:36:37.858Z,0.00
2018-08-24T18:38:30.734Z,0.00
2018-08-24T18:39:30.763Z,0.00
2018-08-24T18:41:23.696Z,0.00
2018-08-24T18:42:23.696Z,0.00
2018-08-24T18:44:16.628Z,0.00
2018-08-24T18:45:16.640Z,0.00
2018-08-24T18:47:09.592Z,0.00
2018-08-24T18:48:09.583Z,0.00
2018-08-24T18:50:02.519Z,0.00
2018-08-24T18:51:02.539Z,0.00
2018-08-24T18:52:55.486Z,0.00
2018-08-24T18:53:55.476Z,0.00
2018-08-24T18:55:48.446Z,0.00
2018-08-24T18:56:48.425Z,0.00
2018-08-24T18:58:41.350Z,0.00
2018-08-24T18:59:41.367Z,0.00